createdAt,value
2023-03-02T00:01:11.836Z,7.28
2023-03-02T00:05:08.900Z,5.72
2023-03-02T00:10:09.066Z,5.13
2023-03-02T00:15:08.768Z,8.23
2023-03-02T00:20:08.809Z,6.93
2023-03-02T00:25:08.840Z,5.38
2023-03-02T00:30:08.912Z,10.90
2023-03-02T00:35:08.953Z,7.55
2023-03-02T00:40:07.976Z,6.88
2023-03-02T00:45:08.076Z,6.78
2023-03-02T00:50:08.130Z,6.22
2023-03-02T00:55:08.172Z,6.35
2023-03-02T01:00:08.271Z,10.80
2023-03-02T01:05:08.774Z,8.68
2023-03-02T01:10:08.792Z,9.40
2023-03-02T01:15:08.833Z,9.40
2023-03-02T01:20:08.922Z,8.07
2023-03-02T01:25:08.985Z,9.38
2023-03-02T01:30:08.052Z,9.70
2023-03-02T01:35:08.224Z,11.02
2023-03-02T01:40:08.280Z,9.88
2023-03-02T01:45:08.327Z,11.60
2023-03-02T01:50:08.381Z,10.90
2023-03-02T01:55:08.445Z,12.35
2023-03-02T02:00:08.468Z,12.88
2023-03-02T02:05:08.540Z,11.18
2023-03-02T02:10:08.590Z,13.82
2023-03-02T02:15:08.652Z,14.65
2023-03-02T02:20:08.718Z,13.02
2023-03-02T02:25:08.716Z,13.68
2023-03-02T02:30:08.758Z,15.35
2023-03-02T02:35:08.844Z,17.58
2023-03-02T02:40:08.906Z,18.40
2023-03-02T02:45:08.980Z,16.30
2023-03-02T02:50:08.111Z,18.13
2023-03-02T02:55:08.175Z,20.10
2023-03-02T03:00:08.225Z,18.90
2023-03-02T03:05:08.284Z,21.23
2023-03-02T03:10:18.358Z,0
2023-03-02T03:15:08.412Z,22.80
2023-03-02T03:20:08.483Z,21.13
2023-03-02T03:25:08.538Z,23.75
2023-03-02T03:30:08.541Z,23.80
2023-03-02T03:35:08.721Z,24.23
2023-03-02T03:40:08.827Z,27.27
2023-03-02T03:45:08.892Z,31.08
2023-03-02T03:50:09.001Z,26.77
2023-03-02T03:55:08.024Z,32.60
2023-03-02T04:00:08.098Z,30.60
2023-03-02T04:05:08.154Z,23.92
2023-03-02T04:10:08.196Z,26.80
2023-03-02T04:15:08.260Z,37.03
2023-03-02T04:20:08.378Z,28.38
2023-03-02T04:25:08.431Z,30.52
2023-03-02T04:30:08.462Z,39.22
2023-03-02T04:35:08.536Z,40.38
2023-03-02T04:40:08.575Z,34.22
2023-03-02T04:45:08.758Z,34.08
2023-03-02T04:50:08.781Z,33.53
2023-03-02T04:55:08.886Z,37.20
2023-03-02T05:00:08.905Z,36.85
2023-03-02T05:05:03.213Z,44.55
2023-03-02T05:10:02.428Z,39.60
2023-03-02T05:15:02.869Z,40.85
2023-03-02T05:20:03.295Z,36.83
2023-03-02T05:25:04.486Z,37.03
2023-03-02T05:30:03.431Z,36.05
2023-03-02T05:35:02.974Z,34.40
2023-03-02T05:40:04.713Z,38.80
2023-03-02T05:45:04.137Z,36.58
2023-03-02T05:50:02.764Z,33.28
2023-03-02T05:55:04.134Z,36.60
2023-03-02T06:00:02.835Z,34.55
2023-03-02T06:05:04.028Z,42.25
2023-03-02T06:10:02.491Z,36.00
2023-03-02T06:15:03.465Z,35.92
2023-03-02T06:20:02.854Z,41.22
2023-03-02T06:25:03.677Z,37.22
2023-03-02T06:30:03.006Z,41.45
2023-03-02T06:35:02.353Z,37.08
2023-03-02T06:40:03.166Z,39.72
2023-03-02T06:45:03.382Z,37.75
2023-03-02T06:50:02.642Z,40.38
2023-03-02T06:55:03.855Z,40.28
2023-03-02T07:00:03.920Z,38.58
2023-03-02T07:05:04.992Z,44.53
2023-03-02T07:10:03.242Z,36.50
2023-03-02T07:15:04.021Z,36.65
2023-03-02T07:20:02.857Z,34.83
2023-03-02T07:25:04.018Z,37.45
2023-03-02T07:30:03.735Z,34.42
2023-03-02T07:35:04.364Z,38.42
2023-03-02T07:40:02.531Z,36.03
2023-03-02T07:45:03.789Z,37.80
2023-03-02T07:50:04.896Z,33.42
2023-03-02T07:55:05.309Z,35.70
2023-03-02T08:00:02.567Z,36.92
2023-03-02T08:05:03.482Z,36.30
2023-03-02T08:10:03.069Z,36.17
2023-03-02T08:15:05.024Z,37.10
2023-03-02T08:20:03.558Z,38.25
2023-03-02T08:25:04.527Z,32.50
2023-03-02T08:30:04.813Z,36.33
2023-03-02T08:35:03.869Z,33.97
2023-03-02T08:40:03.754Z,31.83
2023-03-02T08:45:03.157Z,39.35
2023-03-02T08:50:02.735Z,32.55
2023-03-02T08:55:04.263Z,36.00
2023-03-02T09:00:04.125Z,31.05
2023-03-02T09:05:05.092Z,34.47
2023-03-02T09:10:02.393Z,30.90
2023-03-02T09:15:03.928Z,33.78
2023-03-02T09:20:02.739Z,31.20
2023-03-02T09:25:04.491Z,28.65
2023-03-02T09:30:03.264Z,28.25
2023-03-02T09:35:03.383Z,27.73
2023-03-02T09:40:02.782Z,31.88
2023-03-02T09:45:04.164Z,28.95
2023-03-02T09:50:02.966Z,34.65
2023-03-02T09:55:03.713Z,31.92
2023-03-02T10:00:12.883Z,29.13
2023-03-02T10:05:02.403Z,28.02
2023-03-02T10:10:04.336Z,23.52
2023-03-02T10:15:03.497Z,21.23
2023-03-02T10:20:03.467Z,23.40
2023-03-02T10:25:03.944Z,20.17
2023-03-02T10:30:02.491Z,20.23
2023-03-02T10:35:03.395Z,20.25
2023-03-02T10:40:02.975Z,23.63
2023-03-02T10:45:03.582Z,19.30
2023-03-02T10:50:03.856Z,19.80
2023-03-02T10:55:04.945Z,18.80
2023-03-02T11:00:02.175Z,17.42
2023-03-02T11:05:03.137Z,13.93
2023-03-02T11:10:03.412Z,15.77
2023-03-02T11:15:02.980Z,18.73
2023-03-02T11:25:13.013Z,15.63
2023-03-02T11:30:06.841Z,17.75
2023-03-02T11:35:17.121Z,19.63
2023-03-02T11:40:02.485Z,22.33
2023-03-02T11:45:04.292Z,20.45
2023-03-02T11:50:03.147Z,19.17
2023-03-02T11:55:03.242Z,17.45
2023-03-02T12:00:04.021Z,20.33
2023-03-02T12:05:03.168Z,16.17
2023-03-02T12:10:07.717Z,18.30
2023-03-02T12:15:04.137Z,15.73
2023-03-02T12:20:12.558Z,18.20
2023-03-02T12:25:05.548Z,15.93
2023-03-02T12:30:11.176Z,15.60
2023-03-02T12:35:12.405Z,15.77
2023-03-02T12:40:04.123Z,17.67
2023-03-02T12:45:12.974Z,15.40
2023-03-02T12:50:06.521Z,16.27
2023-03-02T12:55:03.536Z,13.13
2023-03-02T13:00:13.433Z,12.38
2023-03-02T13:05:03.752Z,15.43
2023-03-02T13:10:04.754Z,13.15
2023-03-02T13:15:10.395Z,15.00
2023-03-02T13:20:03.979Z,14.55
2023-03-02T13:25:10.889Z,17.83
2023-03-02T13:30:04.645Z,17.38
2023-03-02T13:35:03.972Z,15.20
2023-03-02T13:40:02.763Z,11.48
2023-03-02T13:45:04.583Z,12.45
2023-03-02T13:50:03.764Z,14.23
2023-03-02T13:55:04.018Z,15.98
2023-03-02T14:00:03.478Z,15.63
2023-03-02T14:05:04.818Z,17.15
2023-03-02T14:10:04.285Z,15.73
2023-03-02T14:15:04.638Z,12.82
2023-03-02T14:20:03.197Z,14.52
2023-03-02T14:25:04.672Z,16.17
2023-03-02T14:30:03.640Z,16.05
2023-03-02T14:35:04.471Z,14.23
2023-03-02T14:40:14.562Z,12.73
2023-03-02T14:45:04.045Z,16.02
2023-03-02T14:50:03.443Z,15.23
2023-03-02T14:55:14.057Z,12.23
2023-03-02T15:00:04.007Z,10.75
2023-03-02T15:05:02.842Z,11.23
2023-03-02T15:10:05.444Z,12.40
2023-03-02T15:15:03.596Z,10.30
2023-03-02T15:20:03.321Z,11.75
2023-03-02T15:25:05.850Z,10.15
2023-03-02T15:30:03.521Z,12.05
2023-03-02T15:35:05.719Z,11.18
2023-03-02T15:40:06.375Z,10.13
2023-03-02T15:45:05.811Z,11.02
2023-03-02T15:50:13.059Z,10.52
2023-03-02T15:55:08.483Z,10.45
2023-03-02T16:00:05.218Z,10.20
2023-03-02T16:05:03.820Z,10.65
2023-03-02T16:10:11.561Z,11.02
2023-03-02T16:15:03.435Z,9.50
2023-03-02T16:20:02.999Z,10.18
2023-03-02T16:25:02.716Z,11.25
2023-03-02T16:30:04.333Z,8.20
2023-03-02T16:35:02.937Z,6.93
2023-03-02T16:40:02.655Z,12.35
2023-03-02T16:45:05.711Z,10.82
2023-03-02T16:50:03.307Z,8.98
2023-03-02T16:55:03.849Z,8.70
2023-03-02T17:00:17.674Z,10.90
2023-03-02T17:05:04.356Z,10.43
2023-03-02T17:10:03.724Z,14.57
2023-03-02T17:15:18.033Z,12.88
2023-03-02T17:20:07.018Z,14.32
2023-03-02T17:25:12.936Z,11.80
2023-03-02T17:30:05.265Z,16.13
2023-03-02T17:35:13.706Z,13.23
2023-03-02T17:40:08.918Z,16.38
2023-03-02T17:45:04.906Z,17.90
2023-03-02T17:50:04.270Z,17.27
2023-03-02T17:55:03.671Z,18.30
2023-03-02T18:00:13.505Z,20.33
2023-03-02T18:05:03.717Z,30.00
2023-03-02T18:10:11.072Z,25.13
2023-03-02T18:15:03.814Z,22.60
2023-03-02T18:20:04.669Z,28.02
2023-03-02T18:25:04.719Z,26.23
2023-03-02T18:30:04.988Z,32.30
2023-03-02T18:35:02.976Z,29.42
2023-03-02T18:40:04.877Z,47.03
2023-03-02T18:45:06.528Z,49.05
2023-03-02T18:50:03.408Z,45.30
2023-03-02T18:55:03.396Z,45.20
2023-03-02T19:00:04.157Z,34.63
2023-03-02T19:05:02.915Z,39.17
2023-03-02T19:10:06.386Z,32.38
2023-03-02T19:15:03.623Z,33.97
2023-03-02T19:20:04.634Z,33.15
2023-03-02T19:25:03.017Z,33.30
2023-03-02T19:30:07.241Z,34.67
2023-03-02T19:35:03.741Z,31.10
2023-03-02T19:40:06.323Z,38.05
2023-03-02T19:45:02.857Z,37.08
2023-03-02T19:50:04.863Z,30.58
2023-03-02T19:55:04.829Z,33.92
2023-03-02T20:00:05.953Z,35.50
2023-03-02T20:05:03.713Z,34.05
2023-03-02T20:10:04.819Z,35.00
2023-03-02T20:15:05.604Z,33.00
2023-03-02T20:20:05.958Z,33.67
2023-03-02T20:25:04.481Z,30.25
2023-03-02T20:30:03.361Z,37.65
2023-03-02T20:35:04.576Z,45.10
2023-03-02T20:40:03.433Z,32.53
2023-03-02T20:45:05.489Z,32.95
2023-03-02T20:50:05.137Z,31.60
2023-03-02T20:55:04.123Z,30.58
2023-03-02T21:00:04.319Z,29.50
2023-03-02T21:05:04.242Z,31.83
2023-03-02T21:10:02.697Z,35.28
2023-03-02T21:15:07.987Z,32.38
2023-03-02T21:20:03.231Z,36.13
2023-03-02T21:25:04.692Z,34.05
2023-03-02T21:30:07.781Z,30.58
2023-03-02T21:35:08.417Z,32.33
2023-03-02T21:40:04.568Z,30.13
2023-03-02T21:45:05.053Z,36.40
2023-03-02T21:50:14.329Z,40.25
2023-03-02T21:55:03.134Z,34.63
2023-03-02T22:00:05.058Z,38.92
2023-03-02T22:05:15.048Z,37.03
2023-03-02T22:10:08.118Z,50.08
2023-03-02T22:15:08.245Z,48.28
2023-03-02T22:20:08.331Z,46.88
2023-03-02T22:25:08.357Z,49.22
2023-03-02T22:30:08.382Z,46.97
2023-03-02T22:35:17.112Z,49.85
2023-03-02T22:40:18.243Z,0
2023-03-02T22:45:08.296Z,50.58
2023-03-02T22:50:08.351Z,52.15
2023-03-02T22:55:08.356Z,52.60
2023-03-02T23:00:08.458Z,54.17
2023-03-02T23:05:08.520Z,46.60
2023-03-02T23:10:08.560Z,56.60
2023-03-02T23:15:08.609Z,52.03
2023-03-02T23:20:08.674Z,57.35
2023-03-02T23:25:08.740Z,51.50
2023-03-02T23:30:08.814Z,53.88
2023-03-02T23:35:08.840Z,55.80
2023-03-02T23:40:08.848Z,55.97
2023-03-02T23:45:08.922Z,61.42
2023-03-02T23:50:08.004Z,61.90
2023-03-02T23:55:08.142Z,67.15
